sensor_id;sensor_type;location;lat;lon;timestamp;temperature;humidity
60234;DHT22;49514;43.538;-5.708;2022-08-21T00:01:10;24.30;99.90
60234;DHT22;49514;43.538;-5.708;2022-08-21T00:03:37;24.30;99.90
60234;DHT22;49514;43.538;-5.708;2022-08-21T00:06:05;24.30;99.90
60234;DHT22;49514;43.538;-5.708;2022-08-21T00:08:31;24.30;99.90
60234;DHT22;49514;43.538;-5.708;2022-08-21T00:10:58;24.30;99.90
60234;DHT22;49514;43.538;-5.708;2022-08-21T00:13:25;24.20;99.90
60234;DHT22;49514;43.538;-5.708;2022-08-21T00:15:52;24.10;99.90
60234;DHT22;49514;43.538;-5.708;2022-08-21T00:20:47;24.10;99.90
60234;DHT22;49514;43.538;-5.708;2022-08-21T00:25:42;24.10;99.90
60234;DHT22;49514;43.538;-5.708;2022-08-21T00:33:04;24.30;99.90
60234;DHT22;49514;43.538;-5.708;2022-08-21T00:40:34;24.00;99.90
60234;DHT22;49514;43.538;-5.708;2022-08-21T00:43:03;24.00;99.90
60234;DHT22;49514;43.538;-5.708;2022-08-21T00:45:31;24.00;99.90
60234;DHT22;49514;43.538;-5.708;2022-08-21T00:47:58;23.90;99.90
60234;DHT22;49514;43.538;-5.708;2022-08-21T00:50:28;23.90;99.90
60234;DHT22;49514;43.538;-5.708;2022-08-21T00:52:55;23.90;99.90
60234;DHT22;49514;43.538;-5.708;2022-08-21T00:55:24;23.90;99.90
60234;DHT22;49514;43.538;-5.708;2022-08-21T00:57:53;23.90;99.90
60234;DHT22;49514;43.538;-5.708;2022-08-21T01:00:33;23.80;99.90
60234;DHT22;49514;43.538;-5.708;2022-08-21T01:03:07;23.70;99.90
60234;DHT22;49514;43.538;-5.708;2022-08-21T01:05:34;23.70;99.90
60234;DHT22;49514;43.538;-5.708;2022-08-21T01:08:00;23.80;99.90
60234;DHT22;49514;43.538;-5.708;2022-08-21T01:10:28;23.90;99.90
60234;DHT22;49514;43.538;-5.708;2022-08-21T01:12:56;23.70;99.90
60234;DHT22;49514;43.538;-5.708;2022-08-21T01:15:26;23.70;99.90
60234;DHT22;49514;43.538;-5.708;2022-08-21T01:17:54;23.70;99.90
60234;DHT22;49514;43.538;-5.708;2022-08-21T01:20:21;23.70;99.90
60234;DHT22;49514;43.538;-5.708;2022-08-21T01:22:48;23.70;99.90
60234;DHT22;49514;43.538;-5.708;2022-08-21T01:25:16;23.70;99.90
60234;DHT22;49514;43.538;-5.708;2022-08-21T01:27:43;23.60;99.90
60234;DHT22;49514;43.538;-5.708;2022-08-21T01:30:14;23.60;99.90
60234;DHT22;49514;43.538;-5.708;2022-08-21T01:32:42;23.60;99.90
60234;DHT22;49514;43.538;-5.708;2022-08-21T01:35:10;23.60;99.90
60234;DHT22;49514;43.538;-5.708;2022-08-21T01:37:38;23.60;99.90
60234;DHT22;49514;43.538;-5.708;2022-08-21T01:40:06;23.50;99.90
60234;DHT22;49514;43.538;-5.708;2022-08-21T01:42:34;23.50;99.90
60234;DHT22;49514;43.538;-5.708;2022-08-21T01:45:00;23.50;99.90
60234;DHT22;49514;43.538;-5.708;2022-08-21T01:47:27;23.40;99.90
60234;DHT22;49514;43.538;-5.708;2022-08-21T01:49:54;23.50;99.90
60234;DHT22;49514;43.538;-5.708;2022-08-21T01:54:48;23.30;99.90
60234;DHT22;49514;43.538;-5.708;2022-08-21T01:57:14;23.50;99.90
60234;DHT22;49514;43.538;-5.708;2022-08-21T01:59:41;23.30;99.90
60234;DHT22;49514;43.538;-5.708;2022-08-21T02:02:08;23.30;99.90
60234;DHT22;49514;43.538;-5.708;2022-08-21T02:04:35;23.30;99.90
60234;DHT22;49514;43.538;-5.708;2022-08-21T02:07:02;23.30;99.90
60234;DHT22;49514;43.538;-5.708;2022-08-21T02:09:29;23.40;99.90
60234;DHT22;49514;43.538;-5.708;2022-08-21T02:11:56;23.30;99.90
60234;DHT22;49514;43.538;-5.708;2022-08-21T02:14:23;23.30;99.90
60234;DHT22;49514;43.538;-5.708;2022-08-21T02:16:49;23.20;99.90
60234;DHT22;49514;43.538;-5.708;2022-08-21T02:19:16;23.40;99.90
60234;DHT22;49514;43.538;-5.708;2022-08-21T02:21:43;23.50;99.90
60234;DHT22;49514;43.538;-5.708;2022-08-21T02:26:37;23.50;99.90
60234;DHT22;49514;43.538;-5.708;2022-08-21T02:29:04;23.50;99.90
60234;DHT22;49514;43.538;-5.708;2022-08-21T02:31:31;23.30;99.90
60234;DHT22;49514;43.538;-5.708;2022-08-21T02:33:58;23.30;99.90
60234;DHT22;49514;43.538;-5.708;2022-08-21T02:36:26;23.30;99.90
60234;DHT22;49514;43.538;-5.708;2022-08-21T02:38:52;23.20;99.90
60234;DHT22;49514;43.538;-5.708;2022-08-21T02:41:21;23.20;99.90
60234;DHT22;49514;43.538;-5.708;2022-08-21T02:43:48;23.20;99.90
60234;DHT22;49514;43.538;-5.708;2022-08-21T02:46:18;23.20;99.90
60234;DHT22;49514;43.538;-5.708;2022-08-21T02:48:46;23.20;99.90
60234;DHT22;49514;43.538;-5.708;2022-08-21T02:51:18;23.20;99.90
60234;DHT22;49514;43.538;-5.708;2022-08-21T02:53:46;23.10;99.90
60234;DHT22;49514;43.538;-5.708;2022-08-21T03:03:46;23.20;99.90
60234;DHT22;49514;43.538;-5.708;2022-08-21T03:06:17;23.30;99.90
60234;DHT22;49514;43.538;-5.708;2022-08-21T03:08:44;23.20;99.90
60234;DHT22;49514;43.538;-5.708;2022-08-21T03:11:12;23.20;99.90
60234;DHT22;49514;43.538;-5.708;2022-08-21T03:13:39;23.10;99.90
60234;DHT22;49514;43.538;-5.708;2022-08-21T03:16:06;22.90;99.90
60234;DHT22;49514;43.538;-5.708;2022-08-21T03:18:33;23.00;99.90
60234;DHT22;49514;43.538;-5.708;2022-08-21T03:21:00;23.10;99.90
60234;DHT22;49514;43.538;-5.708;2022-08-21T03:23:27;22.80;99.90
60234;DHT22;49514;43.538;-5.708;2022-08-21T03:25:53;23.10;99.90
60234;DHT22;49514;43.538;-5.708;2022-08-21T03:28:21;23.00;99.90
60234;DHT22;49514;43.538;-5.708;2022-08-21T03:30:49;23.00;99.90
60234;DHT22;49514;43.538;-5.708;2022-08-21T03:33:17;23.00;99.90
60234;DHT22;49514;43.538;-5.708;2022-08-21T03:35:47;22.90;99.90
60234;DHT22;49514;43.538;-5.708;2022-08-21T03:38:15;23.00;99.90
60234;DHT22;49514;43.538;-5.708;2022-08-21T03:40:42;22.90;99.90
60234;DHT22;49514;43.538;-5.708;2022-08-21T03:43:09;22.60;99.90
60234;DHT22;49514;43.538;-5.708;2022-08-21T03:45:36;22.70;99.90
60234;DHT22;49514;43.538;-5.708;2022-08-21T03:48:04;22.90;99.90
60234;DHT22;49514;43.538;-5.708;2022-08-21T03:50:33;23.10;99.90
60234;DHT22;49514;43.538;-5.708;2022-08-21T03:53:02;23.00;99.90
60234;DHT22;49514;43.538;-5.708;2022-08-21T03:55:29;22.90;99.90
60234;DHT22;49514;43.538;-5.708;2022-08-21T03:57:56;22.90;99.90
60234;DHT22;49514;43.538;-5.708;2022-08-21T04:00:23;22.60;99.90
60234;DHT22;49514;43.538;-5.708;2022-08-21T04:02:50;22.90;99.90
60234;DHT22;49514;43.538;-5.708;2022-08-21T04:05:18;22.80;99.90
60234;DHT22;49514;43.538;-5.708;2022-08-21T04:07:58;22.50;99.90
60234;DHT22;49514;43.538;-5.708;2022-08-21T04:10:26;23.00;99.90
60234;DHT22;49514;43.538;-5.708;2022-08-21T04:12:53;22.50;99.90
60234;DHT22;49514;43.538;-5.708;2022-08-21T04:15:21;22.50;99.90
60234;DHT22;49514;43.538;-5.708;2022-08-21T04:17:48;22.70;99.90
60234;DHT22;49514;43.538;-5.708;2022-08-21T04:20:16;22.50;99.90
60234;DHT22;49514;43.538;-5.708;2022-08-21T04:22:44;22.70;99.90
60234;DHT22;49514;43.538;-5.708;2022-08-21T04:25:13;22.50;99.90
60234;DHT22;49514;43.538;-5.708;2022-08-21T04:27:41;22.70;99.90
60234;DHT22;49514;43.538;-5.708;2022-08-21T04:30:09;22.70;99.90
60234;DHT22;49514;43.538;-5.708;2022-08-21T04:32:37;22.70;99.90
60234;DHT22;49514;43.538;-5.708;2022-08-21T04:35:08;22.60;99.90
60234;DHT22;49514;43.538;-5.708;2022-08-21T04:37:36;22.70;99.90
60234;DHT22;49514;43.538;-5.708;2022-08-21T04:40:04;22.70;99.90
60234;DHT22;49514;43.538;-5.708;2022-08-21T04:42:31;22.70;99.90
60234;DHT22;49514;43.538;-5.708;2022-08-21T04:44:57;22.70;99.90
60234;DHT22;49514;43.538;-5.708;2022-08-21T04:47:24;22.70;99.90
60234;DHT22;49514;43.538;-5.708;2022-08-21T04:49:51;22.90;99.90
60234;DHT22;49514;43.538;-5.708;2022-08-21T04:52:21;22.60;99.90
60234;DHT22;49514;43.538;-5.708;2022-08-21T04:54:49;22.70;99.90
60234;DHT22;49514;43.538;-5.708;2022-08-21T04:57:18;22.60;99.90
60234;DHT22;49514;43.538;-5.708;2022-08-21T04:59:48;22.50;99.90
60234;DHT22;49514;43.538;-5.708;2022-08-21T05:02:16;22.40;99.90
60234;DHT22;49514;43.538;-5.708;2022-08-21T05:04:47;22.40;99.90
60234;DHT22;49514;43.538;-5.708;2022-08-21T05:07:19;22.90;99.90
60234;DHT22;49514;43.538;-5.708;2022-08-21T05:09:46;22.60;99.90
60234;DHT22;49514;43.538;-5.708;2022-08-21T05:12:13;23.00;99.90
60234;DHT22;49514;43.538;-5.708;2022-08-21T05:14:40;22.50;99.90
60234;DHT22;49514;43.538;-5.708;2022-08-21T05:17:09;22.60;99.90
60234;DHT22;49514;43.538;-5.708;2022-08-21T05:19:36;22.40;99.90
60234;DHT22;49514;43.538;-5.708;2022-08-21T05:22:03;22.50;99.90
60234;DHT22;49514;43.538;-5.708;2022-08-21T05:24:29;22.60;99.90
60234;DHT22;49514;43.538;-5.708;2022-08-21T05:26:56;22.40;99.90
60234;DHT22;49514;43.538;-5.708;2022-08-21T05:29:23;22.30;99.90
60234;DHT22;49514;43.538;-5.708;2022-08-21T05:31:49;22.30;99.90
60234;DHT22;49514;43.538;-5.708;2022-08-21T05:34:22;22.20;99.90
60234;DHT22;49514;43.538;-5.708;2022-08-21T05:36:49;22.20;99.90
60234;DHT22;49514;43.538;-5.708;2022-08-21T05:39:16;22.20;99.90
60234;DHT22;49514;43.538;-5.708;2022-08-21T05:41:43;22.20;99.90
60234;DHT22;49514;43.538;-5.708;2022-08-21T05:44:10;22.30;99.90
60234;DHT22;49514;43.538;-5.708;2022-08-21T05:46:37;22.30;99.90
60234;DHT22;49514;43.538;-5.708;2022-08-21T05:49:04;22.30;99.90
60234;DHT22;49514;43.538;-5.708;2022-08-21T05:51:30;22.40;99.90
60234;DHT22;49514;43.538;-5.708;2022-08-21T05:53:57;22.20;99.90
60234;DHT22;49514;43.538;-5.708;2022-08-21T05:56:24;22.30;99.90
60234;DHT22;49514;43.538;-5.708;2022-08-21T05:58:50;22.40;99.90
60234;DHT22;49514;43.538;-5.708;2022-08-21T06:01:17;22.20;99.90
60234;DHT22;49514;43.538;-5.708;2022-08-21T06:03:43;22.20;99.90
60234;DHT22;49514;43.538;-5.708;2022-08-21T06:06:10;22.20;99.90
60234;DHT22;49514;43.538;-5.708;2022-08-21T06:08:37;22.20;99.90
60234;DHT22;49514;43.538;-5.708;2022-08-21T06:11:05;22.30;99.90
60234;DHT22;49514;43.538;-5.708;2022-08-21T06:13:32;22.40;99.90
60234;DHT22;49514;43.538;-5.708;2022-08-21T06:16:11;22.30;99.90
60234;DHT22;49514;43.538;-5.708;2022-08-21T06:18:39;22.20;99.90
60234;DHT22;49514;43.538;-5.708;2022-08-21T06:21:06;22.20;99.90
60234;DHT22;49514;43.538;-5.708;2022-08-21T06:23:34;22.60;99.90
60234;DHT22;49514;43.538;-5.708;2022-08-21T06:26:02;22.30;99.90
60234;DHT22;49514;43.538;-5.708;2022-08-21T06:28:31;22.60;99.90
60234;DHT22;49514;43.538;-5.708;2022-08-21T06:30:58;22.30;99.90
60234;DHT22;49514;43.538;-5.708;2022-08-21T06:33:25;22.50;99.90
60234;DHT22;49514;43.538;-5.708;2022-08-21T06:38:18;22.70;99.90
60234;DHT22;49514;43.538;-5.708;2022-08-21T06:43:14;23.10;99.90
60234;DHT22;49514;43.538;-5.708;2022-08-21T06:45:42;23.10;99.90
60234;DHT22;49514;43.538;-5.708;2022-08-21T06:48:09;23.10;99.90
60234;DHT22;49514;43.538;-5.708;2022-08-21T06:50:36;23.10;99.90
60234;DHT22;49514;43.538;-5.708;2022-08-21T06:53:09;23.20;99.90
60234;DHT22;49514;43.538;-5.708;2022-08-21T06:55:37;23.30;99.90
60234;DHT22;49514;43.538;-5.708;2022-08-21T06:58:04;23.30;99.90
60234;DHT22;49514;43.538;-5.708;2022-08-21T07:00:31;23.30;99.90
60234;DHT22;49514;43.538;-5.708;2022-08-21T07:05:27;23.40;99.90
60234;DHT22;49514;43.538;-5.708;2022-08-21T07:07:53;23.50;99.90
60234;DHT22;49514;43.538;-5.708;2022-08-21T07:10:20;23.50;99.90
60234;DHT22;49514;43.538;-5.708;2022-08-21T07:12:47;23.60;99.90
60234;DHT22;49514;43.538;-5.708;2022-08-21T07:15:14;23.70;99.90
60234;DHT22;49514;43.538;-5.708;2022-08-21T07:52:00;23.30;99.90
60234;DHT22;49514;43.538;-5.708;2022-08-21T07:54:27;23.20;99.90
60234;DHT22;49514;43.538;-5.708;2022-08-21T07:56:54;23.20;99.90
60234;DHT22;49514;43.538;-5.708;2022-08-21T07:59:20;23.40;99.90
60234;DHT22;49514;43.538;-5.708;2022-08-21T08:01:47;23.50;99.90
60234;DHT22;49514;43.538;-5.708;2022-08-21T08:04:14;23.50;99.90
60234;DHT22;49514;43.538;-5.708;2022-08-21T08:06:41;23.70;99.90
60234;DHT22;49514;43.538;-5.708;2022-08-21T08:09:08;23.80;99.90
60234;DHT22;49514;43.538;-5.708;2022-08-21T08:11:35;23.90;99.90
60234;DHT22;49514;43.538;-5.708;2022-08-21T08:14:02;24.10;99.90
60234;DHT22;49514;43.538;-5.708;2022-08-21T08:16:29;24.20;99.90
60234;DHT22;49514;43.538;-5.708;2022-08-21T08:18:56;24.20;99.90
60234;DHT22;49514;43.538;-5.708;2022-08-21T08:21:23;24.20;99.90
60234;DHT22;49514;43.538;-5.708;2022-08-21T08:23:50;24.30;99.90
60234;DHT22;49514;43.538;-5.708;2022-08-21T08:26:18;24.30;99.90
60234;DHT22;49514;43.538;-5.708;2022-08-21T08:28:45;24.20;99.90
60234;DHT22;49514;43.538;-5.708;2022-08-21T08:31:14;24.20;99.90
60234;DHT22;49514;43.538;-5.708;2022-08-21T08:33:40;24.30;99.90
60234;DHT22;49514;43.538;-5.708;2022-08-21T08:36:12;24.40;99.90
60234;DHT22;49514;43.538;-5.708;2022-08-21T08:38:38;24.40;99.90
60234;DHT22;49514;43.538;-5.708;2022-08-21T08:43:32;24.30;99.90
60234;DHT22;49514;43.538;-5.708;2022-08-21T08:46:01;24.20;99.90
60234;DHT22;49514;43.538;-5.708;2022-08-21T08:48:45;24.10;99.90
60234;DHT22;49514;43.538;-5.708;2022-08-21T08:51:14;24.00;99.90
60234;DHT22;49514;43.538;-5.708;2022-08-21T08:53:47;23.90;99.90
60234;DHT22;49514;43.538;-5.708;2022-08-21T08:56:16;23.90;99.90
60234;DHT22;49514;43.538;-5.708;2022-08-21T08:58:46;23.90;99.90
60234;DHT22;49514;43.538;-5.708;2022-08-21T09:01:16;23.90;99.90
60234;DHT22;49514;43.538;-5.708;2022-08-21T09:03:44;23.90;99.90
60234;DHT22;49514;43.538;-5.708;2022-08-21T09:11:19;23.80;99.90
60234;DHT22;49514;43.538;-5.708;2022-08-21T09:13:58;23.70;99.90
60234;DHT22;49514;43.538;-5.708;2022-08-21T09:26:48;23.90;99.90
60234;DHT22;49514;43.538;-5.708;2022-08-21T09:29:20;23.90;99.90
60234;DHT22;49514;43.538;-5.708;2022-08-21T09:31:48;23.90;99.90
60234;DHT22;49514;43.538;-5.708;2022-08-21T09:34:23;23.90;99.90
60234;DHT22;49514;43.538;-5.708;2022-08-21T09:36:51;23.90;99.90
60234;DHT22;49514;43.538;-5.708;2022-08-21T09:39:28;23.90;99.90
60234;DHT22;49514;43.538;-5.708;2022-08-21T09:42:02;23.90;99.90
60234;DHT22;49514;43.538;-5.708;2022-08-21T09:44:31;24.00;99.90
60234;DHT22;49514;43.538;-5.708;2022-08-21T09:46:57;24.10;99.90
60234;DHT22;49514;43.538;-5.708;2022-08-21T09:49:28;24.10;99.90
60234;DHT22;49514;43.538;-5.708;2022-08-21T09:51:55;24.20;99.90
60234;DHT22;49514;43.538;-5.708;2022-08-21T09:54:24;24.30;99.90
60234;DHT22;49514;43.538;-5.708;2022-08-21T09:57:53;24.30;99.90
60234;DHT22;49514;43.538;-5.708;2022-08-21T10:00:20;24.30;99.90
60234;DHT22;49514;43.538;-5.708;2022-08-21T10:02:50;24.40;99.90
60234;DHT22;49514;43.538;-5.708;2022-08-21T10:05:22;24.50;99.90
60234;DHT22;49514;43.538;-5.708;2022-08-21T10:07:49;24.50;99.90
60234;DHT22;49514;43.538;-5.708;2022-08-21T10:10:18;24.40;99.90
60234;DHT22;49514;43.538;-5.708;2022-08-21T10:12:56;24.50;99.90
60234;DHT22;49514;43.538;-5.708;2022-08-21T10:15:30;24.50;99.90
60234;DHT22;49514;43.538;-5.708;2022-08-21T10:18:36;24.50;99.90
60234;DHT22;49514;43.538;-5.708;2022-08-21T10:31:35;24.30;99.90
60234;DHT22;49514;43.538;-5.708;2022-08-21T10:36:32;24.30;99.90
60234;DHT22;49514;43.538;-5.708;2022-08-21T10:41:39;24.30;99.90
60234;DHT22;49514;43.538;-5.708;2022-08-21T10:49:14;24.30;99.90
60234;DHT22;49514;43.538;-5.708;2022-08-21T10:56:38;24.30;99.90
60234;DHT22;49514;43.538;-5.708;2022-08-21T11:04:25;24.30;99.90
60234;DHT22;49514;43.538;-5.708;2022-08-21T11:09:42;24.40;99.90
60234;DHT22;49514;43.538;-5.708;2022-08-21T11:13:12;24.40;99.90
60234;DHT22;49514;43.538;-5.708;2022-08-21T11:15:19;24.40;99.90
60234;DHT22;49514;43.538;-5.708;2022-08-21T11:17:54;24.40;99.90
60234;DHT22;49514;43.538;-5.708;2022-08-21T11:20:33;24.50;99.90
60234;DHT22;49514;43.538;-5.708;2022-08-21T11:23:07;24.50;99.90
60234;DHT22;49514;43.538;-5.708;2022-08-21T11:25:40;24.50;99.90
60234;DHT22;49514;43.538;-5.708;2022-08-21T11:38:51;24.40;99.90
60234;DHT22;49514;43.538;-5.708;2022-08-21T11:43:56;24.50;99.90
60234;DHT22;49514;43.538;-5.708;2022-08-21T11:46:35;24.50;99.90
60234;DHT22;49514;43.538;-5.708;2022-08-21T11:51:52;24.40;99.90
60234;DHT22;49514;43.538;-5.708;2022-08-21T11:54:27;24.30;99.90
60234;DHT22;49514;43.538;-5.708;2022-08-21T11:57:14;24.30;99.90
60234;DHT22;49514;43.538;-5.708;2022-08-21T11:59:53;24.30;99.90
60234;DHT22;49514;43.538;-5.708;2022-08-21T12:02:22;24.40;99.90
60234;DHT22;49514;43.538;-5.708;2022-08-21T12:05:25;24.40;99.90
60234;DHT22;49514;43.538;-5.708;2022-08-21T12:07:43;24.50;99.90
60234;DHT22;49514;43.538;-5.708;2022-08-21T12:10:11;24.60;99.90
60234;DHT22;49514;43.538;-5.708;2022-08-21T12:12:39;24.60;99.90
60234;DHT22;49514;43.538;-5.708;2022-08-21T12:15:17;24.70;99.90
60234;DHT22;49514;43.538;-5.708;2022-08-21T12:20:25;24.90;99.90
60234;DHT22;49514;43.538;-5.708;2022-08-21T12:23:01;25.00;99.90
60234;DHT22;49514;43.538;-5.708;2022-08-21T12:25:36;25.10;99.90
60234;DHT22;49514;43.538;-5.708;2022-08-21T12:28:06;25.30;99.90
60234;DHT22;49514;43.538;-5.708;2022-08-21T12:30:35;25.40;99.90
60234;DHT22;49514;43.538;-5.708;2022-08-21T12:33:03;25.50;99.90
60234;DHT22;49514;43.538;-5.708;2022-08-21T12:38:06;25.70;99.90
60234;DHT22;49514;43.538;-5.708;2022-08-21T12:40:39;25.70;99.90
60234;DHT22;49514;43.538;-5.708;2022-08-21T12:43:05;25.90;99.90
60234;DHT22;49514;43.538;-5.708;2022-08-21T12:45:40;26.20;99.90
60234;DHT22;49514;43.538;-5.708;2022-08-21T12:48:12;26.80;99.90
60234;DHT22;49514;43.538;-5.708;2022-08-21T12:50:42;27.60;99.90
60234;DHT22;49514;43.538;-5.708;2022-08-21T12:58:19;30.80;99.90
60234;DHT22;49514;43.538;-5.708;2022-08-21T13:03:13;34.00;99.90
60234;DHT22;49514;43.538;-5.708;2022-08-21T13:05:40;35.40;95.60
60234;DHT22;49514;43.538;-5.708;2022-08-21T13:08:10;37.20;93.30
60234;DHT22;49514;43.538;-5.708;2022-08-21T13:18:04;42.10;72.50
60234;DHT22;49514;43.538;-5.708;2022-08-21T13:20:35;42.70;70.90
60234;DHT22;49514;43.538;-5.708;2022-08-21T13:25:36;44.90;73.00
60234;DHT22;49514;43.538;-5.708;2022-08-21T13:28:09;45.00;74.80
60234;DHT22;49514;43.538;-5.708;2022-08-21T13:30:41;45.30;73.40
60234;DHT22;49514;43.538;-5.708;2022-08-21T13:33:10;45.30;68.40
60234;DHT22;49514;43.538;-5.708;2022-08-21T13:36:06;44.90;69.70
60234;DHT22;49514;43.538;-5.708;2022-08-21T13:38:36;45.30;68.50
60234;DHT22;49514;43.538;-5.708;2022-08-21T13:41:32;46.60;70.90
60234;DHT22;49514;43.538;-5.708;2022-08-21T13:53:53;48.80;84.80
60234;DHT22;49514;43.538;-5.708;2022-08-21T13:56:30;48.70;53.80
60234;DHT22;49514;43.538;-5.708;2022-08-21T13:58:57;48.40;51.10
60234;DHT22;49514;43.538;-5.708;2022-08-21T14:01:26;48.60;52.20
60234;DHT22;49514;43.538;-5.708;2022-08-21T14:03:55;49.70;52.40
60234;DHT22;49514;43.538;-5.708;2022-08-21T14:06:24;49.40;48.70
60234;DHT22;49514;43.538;-5.708;2022-08-21T14:09:13;49.50;50.20
60234;DHT22;49514;43.538;-5.708;2022-08-21T14:11:41;50.50;51.00
60234;DHT22;49514;43.538;-5.708;2022-08-21T14:14:25;51.20;49.70
60234;DHT22;49514;43.538;-5.708;2022-08-21T14:16:56;51.80;47.10
60234;DHT22;49514;43.538;-5.708;2022-08-21T14:19:24;52.00;44.90
60234;DHT22;49514;43.538;-5.708;2022-08-21T14:21:51;52.60;46.20
60234;DHT22;49514;43.538;-5.708;2022-08-21T14:29:18;53.80;44.50
60234;DHT22;49514;43.538;-5.708;2022-08-21T14:31:52;53.80;44.30
60234;DHT22;49514;43.538;-5.708;2022-08-21T14:34:19;53.80;42.30
60234;DHT22;49514;43.538;-5.708;2022-08-21T14:39:14;53.50;42.80
60234;DHT22;49514;43.538;-5.708;2022-08-21T14:41:41;53.50;41.50
60234;DHT22;49514;43.538;-5.708;2022-08-21T14:44:09;53.50;41.20
60234;DHT22;49514;43.538;-5.708;2022-08-21T14:46:36;53.70;42.70
60234;DHT22;49514;43.538;-5.708;2022-08-21T14:49:04;53.50;41.30
60234;DHT22;49514;43.538;-5.708;2022-08-21T14:51:31;53.70;41.50
60234;DHT22;49514;43.538;-5.708;2022-08-21T14:53:58;53.80;41.90
60234;DHT22;49514;43.538;-5.708;2022-08-21T14:56:24;53.70;41.60
60234;DHT22;49514;43.538;-5.708;2022-08-21T14:58:51;53.50;40.90
60234;DHT22;49514;43.538;-5.708;2022-08-21T15:03:46;57.60;43.80
60234;DHT22;49514;43.538;-5.708;2022-08-21T15:06:14;52.90;41.50
60234;DHT22;49514;43.538;-5.708;2022-08-21T15:08:41;53.10;42.10
60234;DHT22;49514;43.538;-5.708;2022-08-21T15:11:16;53.00;41.70
60234;DHT22;49514;43.538;-5.708;2022-08-21T15:13:43;53.50;42.10
60234;DHT22;49514;43.538;-5.708;2022-08-21T15:16:11;53.40;42.30
60234;DHT22;49514;43.538;-5.708;2022-08-21T15:21:05;52.50;41.50
60234;DHT22;49514;43.538;-5.708;2022-08-21T15:23:32;50.20;43.10
60234;DHT22;49514;43.538;-5.708;2022-08-21T15:25:58;49.40;43.30
60234;DHT22;49514;43.538;-5.708;2022-08-21T15:28:25;49.20;43.90
60234;DHT22;49514;43.538;-5.708;2022-08-21T15:30:52;50.10;43.60
60234;DHT22;49514;43.538;-5.708;2022-08-21T15:33:19;49.80;44.00
60234;DHT22;49514;43.538;-5.708;2022-08-21T15:35:45;50.30;43.80
60234;DHT22;49514;43.538;-5.708;2022-08-21T15:38:12;49.80;43.50
60234;DHT22;49514;43.538;-5.708;2022-08-21T15:40:39;49.60;43.50
60234;DHT22;49514;43.538;-5.708;2022-08-21T15:43:06;48.90;43.50
60234;DHT22;49514;43.538;-5.708;2022-08-21T15:45:35;47.60;43.90
60234;DHT22;49514;43.538;-5.708;2022-08-21T15:48:02;45.90;44.50
60234;DHT22;49514;43.538;-5.708;2022-08-21T15:50:30;44.40;46.40
60234;DHT22;49514;43.538;-5.708;2022-08-21T15:52:57;43.50;47.60
60234;DHT22;49514;43.538;-5.708;2022-08-21T15:55:24;42.50;47.70
60234;DHT22;49514;43.538;-5.708;2022-08-21T15:57:51;41.60;49.50
60234;DHT22;49514;43.538;-5.708;2022-08-21T16:00:22;41.40;50.10
60234;DHT22;49514;43.538;-5.708;2022-08-21T16:02:52;42.80;49.60
60234;DHT22;49514;43.538;-5.708;2022-08-21T16:05:20;42.60;49.00
60234;DHT22;49514;43.538;-5.708;2022-08-21T16:07:48;41.30;49.70
60234;DHT22;49514;43.538;-5.708;2022-08-21T16:10:18;40.40;50.80
60234;DHT22;49514;43.538;-5.708;2022-08-21T16:13:05;39.30;51.50
60234;DHT22;49514;43.538;-5.708;2022-08-21T16:15:33;38.20;52.40
60234;DHT22;49514;43.538;-5.708;2022-08-21T16:18:00;37.70;53.40
60234;DHT22;49514;43.538;-5.708;2022-08-21T16:20:28;36.90;55.30
60234;DHT22;49514;43.538;-5.708;2022-08-21T16:22:56;35.90;57.00
60234;DHT22;49514;43.538;-5.708;2022-08-21T16:25:24;36.50;57.00
60234;DHT22;49514;43.538;-5.708;2022-08-21T16:27:57;36.10;56.80
60234;DHT22;49514;43.538;-5.708;2022-08-21T16:30:26;37.30;57.10
60234;DHT22;49514;43.538;-5.708;2022-08-21T16:32:53;38.90;55.00
60234;DHT22;49514;43.538;-5.708;2022-08-21T16:35:21;38.30;55.00
60234;DHT22;49514;43.538;-5.708;2022-08-21T16:37:48;37.90;56.00
60234;DHT22;49514;43.538;-5.708;2022-08-21T16:40:15;37.10;56.90
60234;DHT22;49514;43.538;-5.708;2022-08-21T16:42:43;37.10;56.90
60234;DHT22;49514;43.538;-5.708;2022-08-21T16:45:14;36.20;57.40
60234;DHT22;49514;43.538;-5.708;2022-08-21T16:47:41;35.90;57.50
60234;DHT22;49514;43.538;-5.708;2022-08-21T16:50:09;35.50;58.30
60234;DHT22;49514;43.538;-5.708;2022-08-21T16:52:36;35.40;59.60
60234;DHT22;49514;43.538;-5.708;2022-08-21T16:55:04;35.90;59.60
60234;DHT22;49514;43.538;-5.708;2022-08-21T16:57:31;36.80;58.40
60234;DHT22;49514;43.538;-5.708;2022-08-21T16:59:58;36.90;58.20
60234;DHT22;49514;43.538;-5.708;2022-08-21T17:02:31;35.70;59.00
60234;DHT22;49514;43.538;-5.708;2022-08-21T17:04:58;35.40;59.20
60234;DHT22;49514;43.538;-5.708;2022-08-21T17:07:27;35.00;59.90
60234;DHT22;49514;43.538;-5.708;2022-08-21T17:09:55;34.90;61.50
60234;DHT22;49514;43.538;-5.708;2022-08-21T17:12:24;34.80;62.10
60234;DHT22;49514;43.538;-5.708;2022-08-21T17:14:51;34.80;61.90
60234;DHT22;49514;43.538;-5.708;2022-08-21T17:17:19;34.60;62.00
60234;DHT22;49514;43.538;-5.708;2022-08-21T17:19:46;34.40;62.20
60234;DHT22;49514;43.538;-5.708;2022-08-21T17:22:13;34.30;63.90
60234;DHT22;49514;43.538;-5.708;2022-08-21T17:24:40;34.00;62.80
60234;DHT22;49514;43.538;-5.708;2022-08-21T17:27:07;33.80;63.80
60234;DHT22;49514;43.538;-5.708;2022-08-21T17:29:37;33.40;64.90
60234;DHT22;49514;43.538;-5.708;2022-08-21T17:32:11;32.90;66.00
60234;DHT22;49514;43.538;-5.708;2022-08-21T17:34:40;32.30;66.50
60234;DHT22;49514;43.538;-5.708;2022-08-21T17:37:07;31.80;69.60
60234;DHT22;49514;43.538;-5.708;2022-08-21T17:39:34;31.20;70.00
60234;DHT22;49514;43.538;-5.708;2022-08-21T17:42:07;30.70;71.30
60234;DHT22;49514;43.538;-5.708;2022-08-21T17:44:39;30.30;74.90
60234;DHT22;49514;43.538;-5.708;2022-08-21T17:47:07;30.00;74.10
60234;DHT22;49514;43.538;-5.708;2022-08-21T17:49:35;29.80;79.40
60234;DHT22;49514;43.538;-5.708;2022-08-21T17:52:02;29.80;77.90
60234;DHT22;49514;43.538;-5.708;2022-08-21T17:54:29;29.70;78.80
60234;DHT22;49514;43.538;-5.708;2022-08-21T17:56:56;29.60;81.30
60234;DHT22;49514;43.538;-5.708;2022-08-21T17:59:24;29.60;82.00
60234;DHT22;49514;43.538;-5.708;2022-08-21T18:01:53;29.50;81.50
60234;DHT22;49514;43.538;-5.708;2022-08-21T18:04:22;29.30;83.80
60234;DHT22;49514;43.538;-5.708;2022-08-21T18:06:49;29.10;85.80
60234;DHT22;49514;43.538;-5.708;2022-08-21T18:09:16;28.80;88.40
60234;DHT22;49514;43.538;-5.708;2022-08-21T18:11:43;28.50;89.00
60234;DHT22;49514;43.538;-5.708;2022-08-21T18:14:11;28.50;88.90
60234;DHT22;49514;43.538;-5.708;2022-08-21T18:16:38;28.40;90.20
60234;DHT22;49514;43.538;-5.708;2022-08-21T18:19:09;28.20;90.40
60234;DHT22;49514;43.538;-5.708;2022-08-21T18:21:37;28.10;90.70
60234;DHT22;49514;43.538;-5.708;2022-08-21T18:24:04;27.90;91.60
60234;DHT22;49514;43.538;-5.708;2022-08-21T18:26:34;27.70;92.10
60234;DHT22;49514;43.538;-5.708;2022-08-21T18:29:07;27.40;93.80